Time;durP1;ratioP1;P1;durP2;ratioP2;P2;SDS_P1;SDS_P2;PMS_P1;PMS_P2;Temp;Humidity;BMP_temperature;BMP_pressure;BME280_temperature;BME280_humidity;BME280_pressure;Samples;Min_cycle;Max_cycle;Signal;HPM_P1;HPM_P2
2023/10/16 00:01:09;;;;;;;1.73;0.73;;;15.30;62.80;;;;;;5059740;28;20549;-53
2023/10/16 00:03:41;;;;;;;0.90;0.60;;;15.30;63.00;;;;;;5063507;28;20465;-52
2023/10/16 00:06:12;;;;;;;1.00;0.80;;;15.40;63.10;;;;;;5064092;28;21038;-52
2023/10/16 00:08:48;;;;;;;1.20;0.60;;;15.30;63.10;;;;;;5059215;28;20482;-53
2023/10/16 00:11:18;;;;;;;1.27;0.90;;;15.30;63.00;;;;;;5060325;28;20521;-50
2023/10/16 00:13:49;;;;;;;0.90;0.50;;;15.30;63.00;;;;;;5045610;28;20464;-53
2023/10/16 00:16:21;;;;;;;1.67;1.00;;;15.30;63.10;;;;;;5058464;28;20475;-51
2023/10/16 00:18:53;;;;;;;1.13;0.63;;;15.30;62.90;;;;;;5067561;28;20539;-52
2023/10/16 00:21:24;;;;;;;1.33;0.67;;;15.30;63.00;;;;;;5067842;28;20445;-52
2023/10/16 00:23:55;;;;;;;1.83;0.60;;;15.30;62.90;;;;;;5067376;28;20464;-50
2023/10/16 00:26:24;;;;;;;1.17;0.90;;;15.30;63.00;;;;;;5051290;28;20444;-51
2023/10/16 00:29:08;;;;;;;1.00;0.90;;;15.30;63.10;;;;;;5061289;28;20450;-53
2023/10/16 00:31:42;;;;;;;1.67;0.73;;;15.30;63.00;;;;;;5063233;28;20445;-51
2023/10/16 00:34:19;;;;;;;2.10;1.10;;;15.30;63.00;;;;;;5053595;28;20482;-52
2023/10/16 00:36:51;;;;;;;0.90;0.57;;;15.30;62.90;;;;;;5062166;28;20845;-53
2023/10/16 00:39:20;;;;;;;1.20;0.57;;;15.20;62.80;;;;;;5065345;28;20438;-53
2023/10/16 00:41:50;;;;;;;1.87;0.80;;;15.30;62.90;;;;;;5054760;28;21133;-53
2023/10/16 00:44:18;;;;;;;1.70;1.20;;;15.20;62.80;;;;;;5068242;28;20583;-52
2023/10/16 00:46:48;;;;;;;1.57;0.87;;;15.20;62.70;;;;;;5046246;28;20458;-51
2023/10/16 00:49:19;;;;;;;1.10;0.87;;;15.30;62.90;;;;;;5067909;28;20427;-52
2023/10/16 00:51:50;;;;;;;1.30;0.80;;;15.30;63.00;;;;;;5057911;28;20462;-53
2023/10/16 00:54:28;;;;;;;1.10;0.70;;;15.20;62.90;;;;;;5054062;28;20512;-53
2023/10/16 00:56:59;;;;;;;1.67;1.13;;;15.20;62.80;;;;;;5060610;28;20928;-52
2023/10/16 00:59:28;;;;;;;1.90;1.13;;;15.20;62.80;;;;;;5061390;28;20506;-52
2023/10/16 01:02:07;;;;;;;1.20;0.73;;;15.20;62.70;;;;;;5050225;28;20517;-53
2023/10/16 01:04:37;;;;;;;0.90;0.67;;;15.20;62.90;;;;;;5074626;28;20576;-52
2023/10/16 01:07:07;;;;;;;0.87;0.70;;;15.20;62.70;;;;;;5061737;28;20488;-52
2023/10/16 01:09:36;;;;;;;1.93;0.83;;;15.20;62.80;;;;;;5061977;28;20984;-50
2023/10/16 01:12:07;;;;;;;1.30;1.20;;;15.20;62.80;;;;;;5069096;28;20451;-52
2023/10/16 01:14:37;;;;;;;1.47;1.37;;;15.20;62.90;;;;;;5055284;28;21049;-52
2023/10/16 01:17:08;;;;;;;2.03;0.83;;;15.20;62.70;;;;;;5050037;28;20467;-53
2023/10/16 01:19:41;;;;;;;1.40;0.83;;;15.20;62.70;;;;;;5052360;28;20803;-52
2023/10/16 01:22:13;;;;;;;1.17;0.80;;;15.10;62.70;;;;;;5063182;28;20518;-51
2023/10/16 01:24:48;;;;;;;1.43;0.90;;;15.10;62.60;;;;;;5066850;28;20502;-51
2023/10/16 01:27:27;;;;;;;1.00;0.90;;;15.20;62.70;;;;;;5065087;28;20445;-52
2023/10/16 01:29:59;;;;;;;1.20;0.70;;;15.20;62.80;;;;;;5063388;28;20443;-51
2023/10/16 01:32:30;;;;;;;2.07;0.90;;;15.10;64.00;;;;;;5065964;28;20465;-52
2023/10/16 01:35:00;;;;;;;1.10;0.73;;;15.10;62.70;;;;;;5071508;28;20568;-51
2023/10/16 01:37:29;;;;;;;1.70;0.83;;;15.10;63.40;;;;;;5066120;28;20468;-52
2023/10/16 01:40:17;;;;;;;1.43;0.97;;;15.10;62.80;;;;;;5070552;28;20446;-51
2023/10/16 01:42:45;;;;;;;0.73;0.60;;;15.10;62.60;;;;;;5064673;28;20495;-54
2023/10/16 01:45:15;;;;;;;1.43;0.77;;;15.10;62.60;;;;;;5051429;28;20570;-51
2023/10/16 01:47:44;;;;;;;1.13;0.73;;;15.10;62.70;;;;;;5051551;28;20517;-52
2023/10/16 01:50:21;;;;;;;2.10;0.70;;;15.10;62.90;;;;;;5053102;28;20786;-51
2023/10/16 01:52:50;;;;;;;2.33;0.90;;;15.10;62.80;;;;;;5047377;28;20476;-50
2023/10/16 01:55:21;;;;;;;0.90;0.80;;;15.10;62.80;;;;;;5067822;28;20547;-52
2023/10/16 01:57:50;;;;;;;2.07;0.93;;;15.10;62.80;;;;;;5064493;28;20837;-52
2023/10/16 02:00:24;;;;;;;1.30;0.70;;;15.10;62.70;;;;;;5059497;28;20453;-52
2023/10/16 02:02:53;;;;;;;1.17;0.87;;;15.10;62.70;;;;;;5045640;28;20476;-51
2023/10/16 02:05:22;;;;;;;1.03;0.83;;;15.10;62.80;;;;;;5047353;28;20445;-53
2023/10/16 02:07:56;;;;;;;1.40;0.70;;;15.00;62.70;;;;;;5055498;28;20481;-50
2023/10/16 02:10:25;;;;;;;1.20;0.87;;;15.10;62.80;;;;;;5060243;28;20424;-52
2023/10/16 02:12:53;;;;;;;1.37;1.13;;;15.00;64.00;;;;;;5045357;28;20868;-52
2023/10/16 02:15:22;;;;;;;1.00;0.63;;;15.00;62.60;;;;;;5042049;28;20466;-53
2023/10/16 02:17:53;;;;;;;1.67;0.80;;;15.00;62.60;;;;;;5061025;28;20477;-51
2023/10/16 02:20:26;;;;;;;1.70;0.80;;;15.00;62.70;;;;;;5062071;28;20422;-50
2023/10/16 02:22:55;;;;;;;1.23;0.80;;;15.00;62.60;;;;;;5042624;28;20567;-51
2023/10/16 02:25:25;;;;;;;1.53;0.97;;;15.00;62.60;;;;;;5046959;28;20883;-51
2023/10/16 02:27:54;;;;;;;2.30;1.17;;;15.00;62.70;;;;;;5057580;28;20490;-51
2023/10/16 02:30:35;;;;;;;1.30;0.90;;;15.00;62.70;;;;;;5059636;28;20829;-52
2023/10/16 02:33:13;;;;;;;1.97;1.00;;;15.00;62.80;;;;;;5044593;28;20578;-51
2023/10/16 02:35:48;;;;;;;1.50;0.80;;;15.00;62.80;;;;;;5059822;28;20462;-53
2023/10/16 02:38:23;;;;;;;1.37;0.80;;;15.00;62.70;;;;;;5039130;28;20561;-52
2023/10/16 02:40:54;;;;;;;1.50;0.80;;;15.00;62.60;;;;;;5061468;28;20475;-52
2023/10/16 02:43:23;;;;;;;1.30;0.90;;;15.00;62.70;;;;;;5063619;28;20460;-52
2023/10/16 02:45:55;;;;;;;1.83;1.00;;;15.00;62.70;;;;;;5058923;28;20476;-54
2023/10/16 02:48:24;;;;;;;1.10;0.80;;;14.90;62.70;;;;;;5045695;28;20473;-53
2023/10/16 02:50:56;;;;;;;1.23;0.90;;;14.90;62.60;;;;;;5063821;28;20498;-50
2023/10/16 02:53:26;;;;;;;1.10;0.80;;;14.90;62.70;;;;;;5041117;28;20818;-52
2023/10/16 02:56:05;;;;;;;1.30;0.80;;;14.90;62.70;;;;;;5062373;28;20786;-52
2023/10/16 02:58:34;;;;;;;1.47;0.80;;;14.90;62.70;;;;;;5044385;28;20726;-52
2023/10/16 03:01:06;;;;;;;0.97;0.60;;;14.90;62.80;;;;;;5058332;28;20434;-52
2023/10/16 03:03:35;;;;;;;1.43;0.90;;;14.80;61.60;;;;;;5053030;28;20487;-52
2023/10/16 03:06:04;;;;;;;6.33;0.80;;;14.90;62.90;;;;;;5045885;28;20491;-50
2023/10/16 03:08:32;;;;;;;1.13;0.80;;;14.90;62.90;;;;;;5055026;28;20474;-51
2023/10/16 03:11:13;;;;;;;1.93;0.70;;;14.90;62.80;;;;;;5042111;28;21009;-50
2023/10/16 03:13:43;;;;;;;1.13;1.00;;;14.90;62.90;;;;;;5060356;28;20476;-50
2023/10/16 03:16:16;;;;;;;1.27;0.80;;;14.90;62.80;;;;;;5044726;28;20471;-52
2023/10/16 03:18:47;;;;;;;0.70;0.50;;;14.90;62.90;;;;;;5044250;28;20486;-51
2023/10/16 03:21:31;;;;;;;1.30;0.80;;;14.90;62.80;;;;;;5043859;28;20528;-51
2023/10/16 03:23:59;;;;;;;1.43;0.93;;;14.90;62.80;;;;;;5062430;28;20494;-52
2023/10/16 03:26:31;;;;;;;1.00;0.70;;;14.80;62.80;;;;;;5062411;28;20450;-52
2023/10/16 03:29:02;;;;;;;1.00;0.70;;;14.80;62.70;;;;;;5061714;28;20465;-52
2023/10/16 03:31:36;;;;;;;1.80;0.87;;;14.80;62.80;;;;;;5055311;28;20441;-52
2023/10/16 03:34:05;;;;;;;1.50;1.23;;;14.80;62.70;;;;;;5058906;28;20999;-52
2023/10/16 03:36:34;;;;;;;1.57;0.90;;;14.80;62.60;;;;;;5060501;28;20588;-52
2023/10/16 03:39:08;;;;;;;1.00;0.70;;;14.80;62.70;;;;;;5057154;28;20464;-52
2023/10/16 03:41:39;;;;;;;1.47;0.80;;;14.80;62.70;;;;;;5062019;28;20445;-52
2023/10/16 03:44:14;;;;;;;1.13;0.57;;;14.80;62.70;;;;;;5060224;28;20472;-51
2023/10/16 03:46:44;;;;;;;1.17;1.00;;;14.80;62.80;;;;;;5039696;28;20481;-53
2023/10/16 03:49:14;;;;;;;2.23;1.03;;;14.80;62.90;;;;;;5059281;28;20440;-51
2023/10/16 03:51:44;;;;;;;0.70;0.60;;;14.80;62.70;;;;;;5057746;28;20441;-50
2023/10/16 03:54:14;;;;;;;0.93;0.77;;;14.80;62.80;;;;;;5064695;28;20844;-51
2023/10/16 03:56:45;;;;;;;1.63;0.90;;;14.80;62.60;;;;;;5063586;28;20432;-50
2023/10/16 03:59:15;;;;;;;1.30;0.93;;;14.70;62.70;;;;;;5061748;28;20700;-52
2023/10/16 04:01:44;;;;;;;1.10;0.80;;;14.80;62.70;;;;;;5068115;28;21025;-49
2023/10/16 04:04:14;;;;;;;1.83;0.90;;;14.70;62.60;;;;;;5067432;28;20460;-50
2023/10/16 04:06:43;;;;;;;1.30;1.20;;;14.70;62.50;;;;;;5062616;28;20434;-52
2023/10/16 04:09:13;;;;;;;1.37;1.20;;;14.70;62.60;;;;;;5051107;28;20760;-51
2023/10/16 04:11:48;;;;;;;1.03;0.90;;;14.70;62.70;;;;;;5068488;28;20527;-51
2023/10/16 04:14:17;;;;;;;2.57;1.00;;;14.70;62.60;;;;;;5062487;28;20483;-52
2023/10/16 04:16:54;;;;;;;1.17;0.87;;;14.70;62.60;;;;;;5054567;28;20550;-51
2023/10/16 04:19:52;;;;;;;2.20;0.90;;;14.70;62.60;;;;;;5066865;28;20460;-51
2023/10/16 04:22:24;;;;;;;1.93;0.90;;;14.70;62.60;;;;;;5060615;28;20544;-52
2023/10/16 04:24:55;;;;;;;1.27;0.87;;;14.70;62.70;;;;;;5049878;28;20463;-51
2023/10/16 04:27:32;;;;;;;1.70;1.10;;;14.70;62.60;;;;;;5049325;28;20442;-51
2023/10/16 04:30:32;;;;;;;1.80;1.10;;;14.60;62.60;;;;;;5068409;28;20798;-52
2023/10/16 04:33:13;;;;;;;2.30;0.80;;;14.70;62.60;;;;;;5050979;28;20471;-52
2023/10/16 04:38:54;;;;;;;1.10;0.80;;;14.70;62.50;;;;;;5046859;28;20475;-53
2023/10/16 04:44:49;;;;;;;1.57;0.70;;;14.60;62.60;;;;;;5025538;28;20496;-51
2023/10/16 04:47:17;;;;;;;0.80;0.50;;;14.60;62.50;;;;;;5064151;28;20857;-52
2023/10/16 04:49:59;;;;;;;1.30;1.13;;;14.60;62.50;;;;;;5065115;28;21498;-52
2023/10/16 04:53:06;;;;;;;1.87;1.10;;;14.60;62.50;;;;;;5042617;28;20483;-52
2023/10/16 05:01:33;;;;;;;1.17;0.83;;;14.60;62.50;;;;;;5004407;28;20454;-50
2023/10/16 05:06:56;;;;;;;1.00;0.70;;;14.60;62.40;;;;;;5048582;28;20450;-51
2023/10/16 05:18:11;;;;;;;1.23;0.73;;;14.50;62.40;;;;;;5047106;28;20972;-52
2023/10/16 06:16:29;;;;;;;1.30;0.70;;;14.40;62.30;;;;;;5043136;28;20535;-53
2023/10/16 06:18:59;;;;;;;3.60;0.90;;;14.30;62.30;;;;;;5056135;28;20770;-51
2023/10/16 06:21:27;;;;;;;1.63;1.20;;;14.40;62.50;;;;;;5041005;28;20448;-52
2023/10/16 06:23:57;;;;;;;1.67;0.83;;;14.30;62.40;;;;;;5055019;28;20502;-52
2023/10/16 06:26:27;;;;;;;1.20;1.00;;;14.30;62.30;;;;;;5045310;28;20419;-53
2023/10/16 06:28:55;;;;;;;1.67;0.90;;;;;;;;;;5044776;28;20543;-51
2023/10/16 06:31:26;;;;;;;1.20;0.63;;;14.80;76.50;;;;;;5057479;28;20451;-53
2023/10/16 06:33:57;;;;;;;1.63;0.90;;;14.40;70.80;;;;;;5060918;28;20536;-51
2023/10/16 06:36:27;;;;;;;1.00;0.67;;;14.50;78.60;;;;;;5046296;28;20439;-52
2023/10/16 06:39:05;;;;;;;2.20;1.30;;;14.30;62.40;;;;;;5059687;28;20551;-53
2023/10/16 06:41:34;;;;;;;1.30;0.73;;;14.30;62.30;;;;;;5061196;28;20433;-51
2023/10/16 06:44:03;;;;;;;0.90;0.60;;;14.30;62.40;;;;;;5061439;28;20472;-52
2023/10/16 06:46:37;;;;;;;1.00;0.70;;;14.30;62.50;;;;;;5057857;28;20932;-53
2023/10/16 06:49:09;;;;;;;1.40;0.70;;;14.30;62.20;;;;;;5044321;28;20464;-53
2023/10/16 06:51:37;;;;;;;1.57;0.73;;;14.30;62.40;;;;;;5057790;28;20534;-53
2023/10/16 06:54:10;;;;;;;1.00;0.80;;;14.30;62.40;;;;;;5042590;28;20954;-51
2023/10/16 06:56:39;;;;;;;1.40;0.73;;;14.30;62.50;;;;;;5044144;28;20444;-53
2023/10/16 06:59:07;;;;;;;1.77;0.63;;;14.20;62.40;;;;;;5059285;28;20860;-53
2023/10/16 07:01:35;;;;;;;1.37;0.83;;;14.30;63.10;;;;;;5057174;28;20443;-53
2023/10/16 07:04:04;;;;;;;2.10;1.50;;;14.20;64.20;;;;;;5060302;28;20432;-50
2023/10/16 07:06:33;;;;;;;2.87;1.47;;;14.10;58.30;;;;;;5058485;28;20190;-52
2023/10/16 07:09:02;;;;;;;3.10;1.77;;;14.00;59.60;;;;;;5055495;28;20492;-53
2023/10/16 07:11:33;;;;;;;1.73;1.57;;;14.00;60.00;;;;;;5062069;28;20457;-50
2023/10/16 07:14:02;;;;;;;3.33;1.57;;;14.00;60.30;;;;;;5055590;28;21008;-53
2023/10/16 07:16:33;;;;;;;2.20;1.40;;;14.10;60.40;;;;;;5059428;28;20525;-52
2023/10/16 07:19:03;;;;;;;1.67;1.20;;;14.10;60.50;;;;;;5064144;28;20459;-52
2023/10/16 07:21:31;;;;;;;1.43;1.27;;;14.10;60.50;;;;;;5058503;28;20472;-50
2023/10/16 07:24:02;;;;;;;2.60;1.80;;;14.10;60.50;;;;;;5058471;28;20467;-52
2023/10/16 07:26:34;;;;;;;1.80;1.40;;;14.10;60.60;;;;;;5061823;28;20436;-53
2023/10/16 07:29:03;;;;;;;2.00;1.33;;;14.10;60.70;;;;;;5056264;28;20455;-53
2023/10/16 07:31:33;;;;;;;2.97;2.03;;;14.10;60.30;;;;;;5058383;28;20524;-52
2023/10/16 07:34:04;;;;;;;2.97;1.30;;;14.00;60.50;;;;;;5059684;28;20482;-52
2023/10/16 07:36:32;;;;;;;2.43;1.57;;;14.00;60.40;;;;;;5066472;28;20438;-50
2023/10/16 07:39:02;;;;;;;2.00;1.00;;;14.00;60.70;;;;;;5060000;28;20979;-52
2023/10/16 07:41:33;;;;;;;1.67;1.00;;;14.00;62.10;;;;;;5064692;28;20466;-50
2023/10/16 07:44:04;;;;;;;1.53;1.43;;;14.00;61.00;;;;;;5060337;28;20459;-52
2023/10/16 07:46:34;;;;;;;2.23;1.40;;;14.00;60.90;;;;;;5058984;28;20932;-51
2023/10/16 07:49:09;;;;;;;2.40;1.20;;;14.00;61.00;;;;;;5059761;28;20462;-51
2023/10/16 07:51:44;;;;;;;1.53;1.00;;;14.00;62.40;;;;;;5057053;28;20904;-49
2023/10/16 07:54:13;;;;;;;2.03;1.20;;;14.00;61.10;;;;;;5066481;28;20494;-50
2023/10/16 07:56:42;;;;;;;1.60;0.93;;;14.00;61.10;;;;;;5047241;28;20450;-52
2023/10/16 07:59:10;;;;;;;2.50;1.10;;;14.00;61.00;;;;;;5060106;28;20450;-51
2023/10/16 08:01:43;;;;;;;3.10;1.10;;;14.00;61.00;;;;;;5058700;28;20573;-50
2023/10/16 08:04:27;;;;;;;1.90;1.70;;;14.00;61.30;;;;;;5060213;28;20838;-53
2023/10/16 08:07:04;;;;;;;2.03;1.30;;;14.00;60.70;;;;;;5058380;28;20790;-52
2023/10/16 08:12:35;;;;;;;2.80;1.17;;;14.00;61.30;;;;;;5046654;28;20441;-52
2023/10/16 08:15:14;;;;;;;2.30;1.60;;;14.00;61.30;;;;;;5052938;28;20464;-52
2023/10/16 08:17:45;;;;;;;2.27;1.10;;;14.00;61.30;;;;;;5061914;28;20469;-51
2023/10/16 08:20:17;;;;;;;4.00;1.43;;;14.00;61.40;;;;;;5060794;28;20458;-50
2023/10/16 08:22:49;;;;;;;1.43;1.20;;;14.00;61.30;;;;;;5060944;28;21009;-51
2023/10/16 08:25:33;;;;;;;1.97;1.23;;;14.00;61.30;;;;;;5063107;28;20459;-52
2023/10/16 08:30:52;;;;;;;1.40;1.10;;;14.00;61.30;;;;;;5060267;28;20439;-50
2023/10/16 08:33:28;;;;;;;1.30;0.90;;;14.00;61.00;;;;;;5055790;28;20566;-50
2023/10/16 08:35:59;;;;;;;1.50;0.97;;;14.00;61.30;;;;;;5059788;28;20457;-52
2023/10/16 08:38:31;;;;;;;2.53;1.37;;;14.00;61.40;;;;;;5057506;28;20562;-51
2023/10/16 08:41:06;;;;;;;1.43;1.10;;;14.00;61.50;;;;;;5066703;28;20601;-50
2023/10/16 08:43:52;;;;;;;1.37;0.83;;;14.00;61.40;;;;;;5062492;28;21080;-52
2023/10/16 08:46:30;;;;;;;2.70;1.20;;;14.00;61.50;;;;;;5061697;28;20449;-51
2023/10/16 08:49:01;;;;;;;1.77;0.93;;;14.00;61.50;;;;;;5063340;28;22567;-51
2023/10/16 08:51:31;;;;;;;1.37;0.97;;;14.10;61.40;;;;;;5059056;28;20825;-52
2023/10/16 08:54:03;;;;;;;4.07;1.33;;;14.00;61.30;;;;;;5048332;28;20544;-51
2023/10/16 08:56:32;;;;;;;5.23;2.10;;;14.10;61.30;;;;;;5044762;28;20569;-52
2023/10/16 08:59:04;;;;;;;3.93;1.83;;;14.10;61.20;;;;;;5044001;28;20451;-51
2023/10/16 09:01:33;;;;;;;2.20;1.50;;;14.10;61.20;;;;;;5059911;28;20476;-52
2023/10/16 09:04:05;;;;;;;2.23;1.30;;;14.20;61.20;;;;;;5068105;28;20467;-51
2023/10/16 09:06:37;;;;;;;2.60;1.10;;;14.20;61.10;;;;;;5061159;28;20443;-51
2023/10/16 09:09:13;;;;;;;1.80;1.30;;;14.20;61.10;;;;;;5063567;28;21303;-51
2023/10/16 09:11:48;;;;;;;1.20;0.90;;;14.20;61.00;;;;;;5052489;28;20488;-50
2023/10/16 09:14:20;;;;;;;1.47;0.97;;;14.20;61.00;;;;;;5067567;28;20541;-51
2023/10/16 09:16:51;;;;;;;4.50;1.20;;;14.10;61.00;;;;;;5058898;28;20538;-52
2023/10/16 09:19:26;;;;;;;4.17;1.03;;;14.20;61.20;;;;;;5060493;28;20534;-52
2023/10/16 09:21:55;;;;;;;2.40;1.63;;;14.20;61.10;;;;;;5057363;28;20541;-52
2023/10/16 09:24:24;;;;;;;2.07;0.90;;;14.20;61.10;;;;;;5043794;28;20964;-52
2023/10/16 09:26:54;;;;;;;2.70;1.37;;;14.20;61.00;;;;;;5063175;28;20823;-51
2023/10/16 09:29:25;;;;;;;1.60;1.20;;;14.10;60.80;;;;;;5060517;28;20475;-51
2023/10/16 09:31:55;;;;;;;1.80;0.93;;;14.20;61.10;;;;;;5058001;28;20573;-51
2023/10/16 09:34:27;;;;;;;4.97;0.90;;;14.20;61.00;;;;;;5058864;28;20490;-52
2023/10/16 09:39:39;;;;;;;1.50;0.90;;;14.20;61.10;;;;;;5063099;28;20443;-51
2023/10/16 09:42:12;;;;;;;1.63;1.10;;;14.20;61.20;;;;;;5068170;28;20471;-52
2023/10/16 09:44:56;;;;;;;2.40;0.93;;;14.10;61.20;;;;;;5061023;28;20933;-52
2023/10/16 09:47:30;;;;;;;1.70;1.20;;;14.10;61.20;;;;;;5063874;28;20529;-52
2023/10/16 09:49:59;;;;;;;1.93;1.40;;;14.20;61.00;;;;;;5065850;28;20447;-51
2023/10/16 09:52:31;;;;;;;1.40;1.30;;;14.20;61.00;;;;;;5042406;28;20483;-52
2023/10/16 09:55:00;;;;;;;1.40;0.93;;;14.20;61.20;;;;;;5067748;28;20874;-52
2023/10/16 09:57:30;;;;;;;2.00;1.33;;;14.20;61.20;;;;;;5044677;28;20991;-49
2023/10/16 10:00:23;;;;;;;1.33;0.90;;;14.10;61.30;;;;;;5063193;28;20864;-52
2023/10/16 10:02:52;;;;;;;3.30;1.57;;;14.10;61.30;;;;;;5060862;28;21022;-51
2023/10/16 10:05:23;;;;;;;1.37;1.00;;;14.10;61.40;;;;;;5044029;28;20475;-53
2023/10/16 10:07:59;;;;;;;1.90;1.27;;;14.10;61.50;;;;;;5055693;28;20490;-53
2023/10/16 10:13:15;;;;;;;1.77;1.20;;;14.10;61.40;;;;;;5038611;28;20529;-53
2023/10/16 10:15:48;;;;;;;1.63;1.07;;;14.10;61.60;;;;;;5052685;28;20900;-52
2023/10/16 10:18:32;;;;;;;3.23;0.97;;;14.10;61.60;;;;;;5060108;28;20470;-52
2023/10/16 10:21:02;;;;;;;1.43;0.73;;;14.10;61.70;;;;;;5059957;28;20945;-52
2023/10/16 10:23:36;;;;;;;1.40;1.00;;;14.00;61.80;;;;;;5056373;28;20529;-51
2023/10/16 10:26:07;;;;;;;1.20;0.80;;;14.00;61.70;;;;;;5062167;28;20500;-51
2023/10/16 10:28:38;;;;;;;3.17;2.00;;;14.00;61.80;;;;;;5057945;28;21015;-52
2023/10/16 10:31:12;;;;;;;1.20;1.00;;;14.00;61.70;;;;;;5061150;28;20437;-50
2023/10/16 10:33:51;;;;;;;2.23;1.30;;;14.00;61.90;;;;;;5055078;28;20466;-52
2023/10/16 10:36:34;;;;;;;1.93;0.87;;;14.00;61.80;;;;;;5060178;28;20550;-52
2023/10/16 10:39:38;;;;;;;5.70;2.03;;;14.00;62.30;;;;;;5060311;28;20455;-52
2023/10/16 10:42:10;;;;;;;2.50;1.33;;;14.00;60.00;;;;;;5059751;28;20892;-51
2023/10/16 10:44:44;;;;;;;6.30;2.33;;;13.90;58.70;;;;;;5060114;28;20462;-50
2023/10/16 10:47:23;;;;;;;8.63;1.77;;;13.80;58.10;;;;;;5055756;28;20470;-53
2023/10/16 10:49:58;;;;;;;4.43;1.53;;;13.80;59.50;;;;;;5060211;28;20967;-50
2023/10/16 10:52:31;;;;;;;5.20;1.70;;;13.80;59.90;;;;;;5054680;28;20435;-52
2023/10/16 10:55:00;;;;;;;1.27;0.90;;;13.80;60.30;;;;;;5060921;28;20469;-52
2023/10/16 10:57:34;;;;;;;4.00;1.50;;;13.80;60.40;;;;;;5060494;28;20968;-52
2023/10/16 11:02:52;;;;;;;3.20;1.40;;;13.80;60.50;;;;;;5059657;28;20490;-52
2023/10/16 11:05:24;;;;;;;3.17;0.87;;;13.80;60.60;;;;;;5059115;28;20495;-49
2023/10/16 11:10:46;;;;;;;2.60;1.20;;;13.90;60.60;;;;;;5059635;28;20436;-53
2023/10/16 11:13:17;;;;;;;2.00;1.13;;;13.90;60.70;;;;;;5043646;28;20471;-53
2023/10/16 11:15:47;;;;;;;2.90;1.70;;;13.90;60.80;;;;;;5059091;28;20446;-52
2023/10/16 11:18:18;;;;;;;3.90;1.40;;;13.90;60.80;;;;;;5058522;28;20455;-51
2023/10/16 11:20:49;;;;;;;3.30;1.07;;;13.90;61.10;;;;;;5058730;28;20478;-52
2023/10/16 11:23:21;;;;;;;2.30;1.17;;;13.90;61.10;;;;;;5057294;28;20593;-52
2023/10/16 11:25:51;;;;;;;5.03;1.50;;;13.90;60.90;;;;;;5042234;28;20521;-52
2023/10/16 11:28:21;;;;;;;3.00;1.17;;;13.90;61.20;;;;;;5044945;28;20770;-52
2023/10/16 11:30:53;;;;;;;1.80;0.80;;;13.90;61.10;;;;;;5045129;28;20935;-52
2023/10/16 11:33:31;;;;;;;3.10;1.43;;;13.90;61.30;;;;;;5058353;28;20475;-50
2023/10/16 11:36:02;;;;;;;2.13;0.90;;;13.90;61.10;;;;;;5061348;28;20431;-51
2023/10/16 11:38:34;;;;;;;2.53;1.30;;;13.90;61.40;;;;;;5051708;28;20482;-52
2023/10/16 11:41:11;;;;;;;2.50;1.13;;;13.90;62.50;;;;;;5058232;28;20443;-52
2023/10/16 11:43:47;;;;;;;1.80;1.13;;;13.90;61.00;;;;;;5059514;28;20494;-52
2023/10/16 11:46:34;;;;;;;3.00;1.00;;;13.90;61.20;;;;;;5064400;28;20819;-52
2023/10/16 11:49:22;;;;;;;2.30;1.10;;;13.80;61.20;;;;;;5042809;28;20447;-52
2023/10/16 11:51:52;;;;;;;2.30;1.33;;;13.90;61.50;;;;;;5057443;28;20564;-52
2023/10/16 11:54:23;;;;;;;2.20;0.90;;;13.90;61.50;;;;;;5060657;28;20457;-51
2023/10/16 11:56:53;;;;;;;2.00;0.80;;;13.90;61.80;;;;;;5061568;28;20466;-50
2023/10/16 11:59:26;;;;;;;2.10;1.07;;;13.90;61.70;;;;;;5062471;28;20436;-52
2023/10/16 12:01:59;;;;;;;4.93;0.80;;;13.80;61.50;;;;;;5061962;28;20435;-52
2023/10/16 12:04:32;;;;;;;2.40;0.60;;;13.90;62.80;;;;;;5061068;28;20466;-53
2023/10/16 12:07:01;;;;;;;1.87;1.20;;;13.90;61.80;;;;;;5042119;28;20913;-52
2023/10/16 12:09:36;;;;;;;2.10;1.00;;;13.90;61.40;;;;;;5061722;28;21002;-52
2023/10/16 12:12:07;;;;;;;1.37;0.80;;;13.80;61.50;;;;;;5061678;28;20451;-50
2023/10/16 12:14:37;;;;;;;3.63;1.73;;;13.80;61.50;;;;;;5055647;28;20802;-52
2023/10/16 12:17:11;;;;;;;2.43;0.70;;;13.90;61.30;;;;;;5059087;28;20471;-52
2023/10/16 12:19:41;;;;;;;1.20;0.70;;;13.80;61.90;;;;;;5063970;28;20513;-52
2023/10/16 12:22:10;;;;;;;1.57;0.70;;;13.80;61.90;;;;;;5062302;28;20536;-52
2023/10/16 12:24:39;;;;;;;1.77;0.97;;;13.90;61.90;;;;;;5064975;28;20573;-50
2023/10/16 12:27:08;;;;;;;1.60;0.83;;;13.90;62.10;;;;;;5063894;28;20979;-52
2023/10/16 12:29:36;;;;;;;1.57;1.10;;;13.90;61.90;;;;;;5063594;28;20439;-51
2023/10/16 12:32:06;;;;;;;1.53;1.00;;;13.90;61.70;;;;;;5052113;28;20496;-52
2023/10/16 12:34:35;;;;;;;1.90;1.30;;;13.90;61.80;;;;;;5063400;28;20459;-52
2023/10/16 12:37:06;;;;;;;2.90;1.00;;;13.80;61.70;;;;;;5059788;28;20467;-52
2023/10/16 12:39:45;;;;;;;3.50;1.07;;;13.90;62.00;;;;;;5065800;28;20996;-52
2023/10/16 12:42:14;;;;;;;1.37;0.60;;;13.80;61.90;;;;;;5061538;28;20436;-51
2023/10/16 12:44:43;;;;;;;1.17;0.63;;;13.80;62.10;;;;;;5047386;28;23305;-52
2023/10/16 12:47:12;;;;;;;4.27;1.23;;;13.90;62.30;;;;;;5062264;28;20475;-51
2023/10/16 12:49:53;;;;;;;2.00;1.17;;;13.80;62.00;;;;;;5062718;28;20448;-51
2023/10/16 12:52:23;;;;;;;2.70;0.70;;;13.80;62.30;;;;;;5045011;28;20490;-50
2023/10/16 12:54:52;;;;;;;2.33;1.10;;;13.90;62.30;;;;;;5058822;28;20462;-50
2023/10/16 12:57:23;;;;;;;1.17;0.63;;;13.80;62.00;;;;;;5061220;28;21250;-51
2023/10/16 12:59:56;;;;;;;1.00;0.80;;;13.90;62.20;;;;;;5044685;28;20451;-52
2023/10/16 13:02:27;;;;;;;1.17;0.90;;;13.90;62.30;;;;;;5065498;28;20426;-52
2023/10/16 13:05:01;;;;;;;1.30;0.80;;;13.80;62.10;;;;;;5048120;28;20455;-52
2023/10/16 13:07:31;;;;;;;2.00;0.93;;;13.90;62.30;;;;;;5060708;28;20508;-51
2023/10/16 13:10:14;;;;;;;1.03;0.63;;;13.90;62.00;;;;;;5061649;28;20439;-52
2023/10/16 13:12:43;;;;;;;1.83;0.80;;;13.80;62.00;;;;;;5062535;28;20479;-52
2023/10/16 13:15:15;;;;;;;0.90;0.77;;;13.80;62.40;;;;;;5048922;28;20502;-52
2023/10/16 13:17:48;;;;;;;1.50;0.80;;;13.90;62.50;;;;;;5058339;28;20483;-50
2023/10/16 13:20:18;;;;;;;2.07;0.83;;;13.90;62.50;;;;;;5068704;28;20462;-50
2023/10/16 13:22:49;;;;;;;1.90;1.23;;;13.90;62.30;;;;;;5059252;28;21394;-51
2023/10/16 13:25:18;;;;;;;1.23;0.67;;;13.80;62.20;;;;;;5065184;28;20554;-51
2023/10/16 13:27:47;;;;;;;1.33;0.70;;;13.80;62.40;;;;;;5061645;28;20471;-51
2023/10/16 13:30:17;;;;;;;1.53;1.07;;;13.90;62.40;;;;;;5068543;28;21051;-52
2023/10/16 13:32:47;;;;;;;1.00;0.70;;;13.90;62.00;;;;;;5066327;28;20458;-53
2023/10/16 13:35:18;;;;;;;1.83;0.83;;;13.90;62.60;;;;;;5061995;28;20456;-52
2023/10/16 13:37:49;;;;;;;1.23;0.80;;;13.90;62.20;;;;;;5044072;28;20889;-52
2023/10/16 13:40:21;;;;;;;0.93;0.60;;;13.90;62.40;;;;;;5047238;28;20435;-52
2023/10/16 13:42:50;;;;;;;1.87;1.00;;;13.90;62.30;;;;;;5060995;28;20992;-51
2023/10/16 13:45:21;;;;;;;1.80;0.70;;;13.90;62.10;;;;;;5063167;28;20455;-52
2023/10/16 13:47:50;;;;;;;1.53;0.80;;;13.80;62.30;;;;;;5057978;28;20475;-50
2023/10/16 13:50:24;;;;;;;1.63;0.83;;;13.90;62.60;;;;;;5064405;28;20862;-52
2023/10/16 13:52:55;;;;;;;1.33;0.80;;;13.90;62.40;;;;;;5056288;28;20470;-52
2023/10/16 13:55:30;;;;;;;1.20;0.70;;;13.90;62.80;;;;;;5061737;28;20944;-52
2023/10/16 13:57:58;;;;;;;3.57;1.00;;;13.90;62.70;;;;;;5062259;28;20478;-51
2023/10/16 14:00:35;;;;;;;2.00;0.83;;;13.90;62.50;;;;;;5061308;28;20814;-52
2023/10/16 14:03:07;;;;;;;1.13;0.80;;;13.90;62.40;;;;;;5062239;28;20463;-51
2023/10/16 14:05:40;;;;;;;2.10;1.00;;;13.90;62.00;;;;;;5045969;28;20443;-51
2023/10/16 14:08:15;;;;;;;1.97;1.17;;;13.90;62.30;;;;;;5061671;28;20558;-51
2023/10/16 14:10:49;;;;;;;1.80;1.07;;;13.90;62.30;;;;;;5062313;28;20428;-52
2023/10/16 14:13:26;;;;;;;1.30;0.70;;;13.90;62.60;;;;;;5062337;28;20462;-52
2023/10/16 14:16:07;;;;;;;1.07;0.73;;;13.90;62.40;;;;;;5061070;28;20562;-52
2023/10/16 14:18:38;;;;;;;2.50;1.00;;;13.90;62.60;;;;;;5047999;28;20463;-50
2023/10/16 14:21:10;;;;;;;1.40;0.90;;;13.90;62.30;;;;;;5062950;28;20440;-52
2023/10/16 14:23:41;;;;;;;0.70;0.50;;;13.90;62.60;;;;;;5056192;28;20505;-51
2023/10/16 14:26:21;;;;;;;1.10;0.87;;;13.90;62.80;;;;;;5062409;28;20489;-51
2023/10/16 14:28:54;;;;;;;1.00;0.70;;;13.90;62.70;;;;;;5060854;28;20460;-51
2023/10/16 14:31:25;;;;;;;1.23;0.60;;;13.90;62.70;;;;;;5060758;28;20443;-51
2023/10/16 14:33:54;;;;;;;1.53;0.60;;;13.90;62.90;;;;;;5042582;28;20729;-52
2023/10/16 14:36:26;;;;;;;1.63;0.80;;;13.90;62.90;;;;;;5058675;28;20952;-51
2023/10/16 14:38:56;;;;;;;1.43;0.67;;;13.90;62.90;;;;;;5042973;28;20467;-52
2023/10/16 14:41:26;;;;;;;1.03;0.67;;;13.90;62.70;;;;;;5062240;28;20423;-52
2023/10/16 14:43:55;;;;;;;1.37;0.57;;;13.90;62.90;;;;;;5057433;28;20479;-52
2023/10/16 14:46:25;;;;;;;1.20;0.77;;;13.90;62.60;;;;;;5060085;28;20435;-52
2023/10/16 14:48:54;;;;;;;1.00;0.50;;;13.90;62.60;;;;;;5067555;28;20901;-51
2023/10/16 14:51:23;;;;;;;0.97;0.67;;;13.90;62.80;;;;;;5069925;28;20442;-52